CheckWX is a tool to help pilots better visualize weather data.  It is not intended as a substitute for an official pre-flight weather briefing.

23:58:39 UTC

KY8 METAR
Hancock Co-Ron Lewis Field Airport
Lewisport, Kentucky, USA
Current

24 mins ago

KKY8 222335Z AUTO 24004G10KT 10SM CLR 14/03 A2994 RMK A01
Observed
Oct-22 @ 23:35 UTC
Wind
  • 240° at 4 KTS
  • Gusting to 10 KTS
Visibility
10 SM
Flight Rules
VFR
Cloud Levels
  • Clear skies
Temperature
14°C / 57°F
Dewpoint
C / 37°F
Humidity
48%
Altimeter
29.94" Hg
Pressure
1013.92 hPa
Previous

44 mins ago

KKY8 222315Z AUTO VRB06G11KT 10SM FEW065 14/03 A2994 RMK A01
Observed
Oct-22 @ 23:15 UTC
Wind
  • Variable at 6 KTS
  • Gusting to 11 KTS
Visibility
10 SM
Flight Rules
VFR
Cloud Levels
  • Few at 6,500' AGL
Temperature
14°C / 57°F
Dewpoint
C / 37°F
Humidity
48%
Altimeter
29.94" Hg
Pressure
1013.92 hPa
Previous

1 hour ago

KKY8 222255Z AUTO VRB05KT 10SM CLR 15/02 A2992 RMK A01
Observed
Oct-22 @ 22:55 UTC
Wind
  • Variable at 5 KTS
Visibility
10 SM
Flight Rules
VFR
Cloud Levels
  • Clear skies
Temperature
15°C / 59°F
Dewpoint
C / 36°F
Humidity
42%
Altimeter
29.92" Hg
Pressure
1013.22 hPa